sensor_id;sensor_type;location;lat;lon;timestamp;temperature;humidity
3071;DHT22;1546;47.208;9.038;2023-10-13T00:01:01;16.30;89.00
3071;DHT22;1546;47.208;9.038;2023-10-13T00:03:30;16.30;89.20
3071;DHT22;1546;47.208;9.038;2023-10-13T00:05:58;18.80;91.30
3071;DHT22;1546;47.208;9.038;2023-10-13T00:08:28;16.20;90.40
3071;DHT22;1546;47.208;9.038;2023-10-13T00:10:57;16.00;90.70
3071;DHT22;1546;47.208;9.038;2023-10-13T00:13:26;15.90;91.10
3071;DHT22;1546;47.208;9.038;2023-10-13T00:15:53;15.80;90.00
3071;DHT22;1546;47.208;9.038;2023-10-13T00:18:24;16.00;89.20
3071;DHT22;1546;47.208;9.038;2023-10-13T00:20:53;15.90;88.70
3071;DHT22;1546;47.208;9.038;2023-10-13T00:23:22;16.10;89.00
3071;DHT22;1546;47.208;9.038;2023-10-13T00:25:52;16.10;86.30
3071;DHT22;1546;47.208;9.038;2023-10-13T00:28:26;16.10;86.20
3071;DHT22;1546;47.208;9.038;2023-10-13T00:31:01;18.50;89.80
3071;DHT22;1546;47.208;9.038;2023-10-13T00:33:36;16.00;88.10
3071;DHT22;1546;47.208;9.038;2023-10-13T00:36:03;18.00;90.30
3071;DHT22;1546;47.208;9.038;2023-10-13T00:38:31;15.90;88.80
3071;DHT22;1546;47.208;9.038;2023-10-13T00:40:58;16.10;87.50
3071;DHT22;1546;47.208;9.038;2023-10-13T00:43:31;16.10;85.80
3071;DHT22;1546;47.208;9.038;2023-10-13T00:46:05;16.20;87.00
3071;DHT22;1546;47.208;9.038;2023-10-13T00:48:35;16.10;88.90
3071;DHT22;1546;47.208;9.038;2023-10-13T00:51:09;17.00;88.80
3071;DHT22;1546;47.208;9.038;2023-10-13T00:53:44;16.00;87.80
3071;DHT22;1546;47.208;9.038;2023-10-13T00:56:13;15.80;89.70
3071;DHT22;1546;47.208;9.038;2023-10-13T00:58:50;15.50;88.00
3071;DHT22;1546;47.208;9.038;2023-10-13T01:01:18;15.70;90.10
3071;DHT22;1546;47.208;9.038;2023-10-13T01:03:47;17.30;89.30
3071;DHT22;1546;47.208;9.038;2023-10-13T01:06:16;15.60;85.30
3071;DHT22;1546;47.208;9.038;2023-10-13T01:08:45;16.40;86.40
3071;DHT22;1546;47.208;9.038;2023-10-13T01:11:17;18.70;89.20
3071;DHT22;1546;47.208;9.038;2023-10-13T01:13:44;19.00;90.00
3071;DHT22;1546;47.208;9.038;2023-10-13T01:16:11;15.90;86.90
3071;DHT22;1546;47.208;9.038;2023-10-13T01:18:38;15.90;85.00
3071;DHT22;1546;47.208;9.038;2023-10-13T01:21:14;17.50;85.80
3071;DHT22;1546;47.208;9.038;2023-10-13T01:23:47;17.60;86.70
3071;DHT22;1546;47.208;9.038;2023-10-13T01:26:13;16.30;83.80
3071;DHT22;1546;47.208;9.038;2023-10-13T01:28:47;16.00;84.40
3071;DHT22;1546;47.208;9.038;2023-10-13T01:31:15;16.10;85.00
3071;DHT22;1546;47.208;9.038;2023-10-13T01:33:52;16.10;85.80
3071;DHT22;1546;47.208;9.038;2023-10-13T01:36:21;15.80;86.90
3071;DHT22;1546;47.208;9.038;2023-10-13T01:38:49;15.80;88.30
3071;DHT22;1546;47.208;9.038;2023-10-13T01:41:16;15.90;87.70
3071;DHT22;1546;47.208;9.038;2023-10-13T01:43:42;18.60;88.70
3071;DHT22;1546;47.208;9.038;2023-10-13T01:46:10;15.90;87.70
3071;DHT22;1546;47.208;9.038;2023-10-13T01:48:39;15.60;86.90
3071;DHT22;1546;47.208;9.038;2023-10-13T01:51:07;19.10;90.50
3071;DHT22;1546;47.208;9.038;2023-10-13T01:53:39;15.40;86.80
3071;DHT22;1546;47.208;9.038;2023-10-13T01:56:07;17.30;87.40
3071;DHT22;1546;47.208;9.038;2023-10-13T01:58:38;15.60;85.50
3071;DHT22;1546;47.208;9.038;2023-10-13T02:01:07;15.60;84.50
3071;DHT22;1546;47.208;9.038;2023-10-13T02:03:35;15.70;84.80
3071;DHT22;1546;47.208;9.038;2023-10-13T02:06:02;15.60;86.30
3071;DHT22;1546;47.208;9.038;2023-10-13T02:08:31;15.60;87.40
3071;DHT22;1546;47.208;9.038;2023-10-13T02:10:58;15.40;88.70
3071;DHT22;1546;47.208;9.038;2023-10-13T02:13:28;15.40;89.10
3071;DHT22;1546;47.208;9.038;2023-10-13T02:15:57;15.10;88.60
3071;DHT22;1546;47.208;9.038;2023-10-13T02:18:27;14.90;89.40
3071;DHT22;1546;47.208;9.038;2023-10-13T02:20:53;18.90;90.40
3071;DHT22;1546;47.208;9.038;2023-10-13T02:23:29;15.40;85.00
3071;DHT22;1546;47.208;9.038;2023-10-13T02:31:02;15.80;88.80
3071;DHT22;1546;47.208;9.038;2023-10-13T02:33:28;15.70;89.10
3071;DHT22;1546;47.208;9.038;2023-10-13T02:35:56;15.40;89.90
3071;DHT22;1546;47.208;9.038;2023-10-13T02:38:22;15.30;88.90
3071;DHT22;1546;47.208;9.038;2023-10-13T02:40:57;15.20;88.90
3071;DHT22;1546;47.208;9.038;2023-10-13T02:43:33;15.40;89.30
3071;DHT22;1546;47.208;9.038;2023-10-13T02:46:00;17.90;90.60
3071;DHT22;1546;47.208;9.038;2023-10-13T02:48:27;15.40;89.50
3071;DHT22;1546;47.208;9.038;2023-10-13T02:50:58;15.40;89.70
3071;DHT22;1546;47.208;9.038;2023-10-13T02:53:28;15.10;90.30
3071;DHT22;1546;47.208;9.038;2023-10-13T02:55:56;15.00;90.20
3071;DHT22;1546;47.208;9.038;2023-10-13T02:58:23;18.60;92.60
3071;DHT22;1546;47.208;9.038;2023-10-13T03:01:06;14.80;90.70
3071;DHT22;1546;47.208;9.038;2023-10-13T03:03:46;14.80;90.30
3071;DHT22;1546;47.208;9.038;2023-10-13T03:06:17;14.80;88.50
3071;DHT22;1546;47.208;9.038;2023-10-13T03:08:47;15.00;86.70
3071;DHT22;1546;47.208;9.038;2023-10-13T03:11:14;15.20;87.20
3071;DHT22;1546;47.208;9.038;2023-10-13T03:13:46;15.30;87.40
3071;DHT22;1546;47.208;9.038;2023-10-13T03:16:18;16.00;88.90
3071;DHT22;1546;47.208;9.038;2023-10-13T03:18:46;15.10;88.50
3071;DHT22;1546;47.208;9.038;2023-10-13T03:21:20;17.10;90.60
3071;DHT22;1546;47.208;9.038;2023-10-13T03:23:59;14.80;89.40
3071;DHT22;1546;47.208;9.038;2023-10-13T03:26:30;14.90;88.50
3071;DHT22;1546;47.208;9.038;2023-10-13T03:29:01;15.60;90.90
3071;DHT22;1546;47.208;9.038;2023-10-13T03:31:30;14.60;90.60
3071;DHT22;1546;47.208;9.038;2023-10-13T03:34:03;15.20;88.90
3071;DHT22;1546;47.208;9.038;2023-10-13T03:36:30;14.90;88.20
3071;DHT22;1546;47.208;9.038;2023-10-13T03:39:16;17.90;91.20
3071;DHT22;1546;47.208;9.038;2023-10-13T03:41:43;14.90;89.40
3071;DHT22;1546;47.208;9.038;2023-10-13T03:44:11;18.50;91.40
3071;DHT22;1546;47.208;9.038;2023-10-13T03:46:45;15.10;89.20
3071;DHT22;1546;47.208;9.038;2023-10-13T03:49:14;16.50;90.30
3071;DHT22;1546;47.208;9.038;2023-10-13T03:51:45;15.00;90.20
3071;DHT22;1546;47.208;9.038;2023-10-13T03:54:13;15.60;91.20
3071;DHT22;1546;47.208;9.038;2023-10-13T03:56:42;14.60;90.60
3071;DHT22;1546;47.208;9.038;2023-10-13T03:59:11;14.60;90.90
3071;DHT22;1546;47.208;9.038;2023-10-13T04:01:46;16.50;92.20
3071;DHT22;1546;47.208;9.038;2023-10-13T04:04:24;14.60;91.60
3071;DHT22;1546;47.208;9.038;2023-10-13T04:07:00;15.90;91.20
3071;DHT22;1546;47.208;9.038;2023-10-13T04:09:56;14.50;90.00
3071;DHT22;1546;47.208;9.038;2023-10-13T04:12:55;14.30;90.60
3071;DHT22;1546;47.208;9.038;2023-10-13T04:15:43;14.30;90.50
3071;DHT22;1546;47.208;9.038;2023-10-13T04:18:29;16.60;91.80
3071;DHT22;1546;47.208;9.038;2023-10-13T04:21:29;14.20;90.90
3071;DHT22;1546;47.208;9.038;2023-10-13T04:24:06;14.30;90.40
3071;DHT22;1546;47.208;9.038;2023-10-13T04:26:53;14.40;90.30
3071;DHT22;1546;47.208;9.038;2023-10-13T04:29:40;14.40;90.60
3071;DHT22;1546;47.208;9.038;2023-10-13T04:32:17;14.50;90.30
3071;DHT22;1546;47.208;9.038;2023-10-13T04:34:55;14.40;91.10
3071;DHT22;1546;47.208;9.038;2023-10-13T04:37:25;14.50;90.80
3071;DHT22;1546;47.208;9.038;2023-10-13T04:39:55;16.90;91.30
3071;DHT22;1546;47.208;9.038;2023-10-13T04:42:25;18.40;91.30
3071;DHT22;1546;47.208;9.038;2023-10-13T04:45:10;14.70;88.20
3071;DHT22;1546;47.208;9.038;2023-10-13T04:48:03;17.20;90.40
3071;DHT22;1546;47.208;9.038;2023-10-13T04:50:41;14.80;88.80
3071;DHT22;1546;47.208;9.038;2023-10-13T04:53:11;17.40;91.70
3071;DHT22;1546;47.208;9.038;2023-10-13T04:55:54;15.20;90.80
3071;DHT22;1546;47.208;9.038;2023-10-13T04:58:33;16.80;92.70
3071;DHT22;1546;47.208;9.038;2023-10-13T05:01:32;15.10;92.00
3071;DHT22;1546;47.208;9.038;2023-10-13T05:04:15;14.40;91.70
3071;DHT22;1546;47.208;9.038;2023-10-13T05:07:04;16.50;92.80
3071;DHT22;1546;47.208;9.038;2023-10-13T05:09:48;15.60;92.10
3071;DHT22;1546;47.208;9.038;2023-10-13T05:12:33;15.10;91.50
3071;DHT22;1546;47.208;9.038;2023-10-13T05:15:19;14.30;90.90
3071;DHT22;1546;47.208;9.038;2023-10-13T05:18:04;14.20;91.00
3071;DHT22;1546;47.208;9.038;2023-10-13T05:20:48;14.10;91.20
3071;DHT22;1546;47.208;9.038;2023-10-13T05:23:36;16.10;91.70
3071;DHT22;1546;47.208;9.038;2023-10-13T05:26:20;14.20;90.10
3071;DHT22;1546;47.208;9.038;2023-10-13T05:29:05;14.30;89.40
3071;DHT22;1546;47.208;9.038;2023-10-13T05:31:49;14.40;89.20
3071;DHT22;1546;47.208;9.038;2023-10-13T05:34:33;14.30;89.90
3071;DHT22;1546;47.208;9.038;2023-10-13T05:37:18;14.40;90.00
3071;DHT22;1546;47.208;9.038;2023-10-13T05:40:04;14.40;89.20
3071;DHT22;1546;47.208;9.038;2023-10-13T05:42:49;14.50;88.80
3071;DHT22;1546;47.208;9.038;2023-10-13T05:45:48;14.80;88.40
3071;DHT22;1546;47.208;9.038;2023-10-13T05:48:28;14.60;87.70
3071;DHT22;1546;47.208;9.038;2023-10-13T05:51:17;17.10;89.80
3071;DHT22;1546;47.208;9.038;2023-10-13T05:54:10;16.80;89.40
3071;DHT22;1546;47.208;9.038;2023-10-13T05:56:56;15.40;88.70
3071;DHT22;1546;47.208;9.038;2023-10-13T05:59:40;15.40;89.60
3071;DHT22;1546;47.208;9.038;2023-10-13T06:02:24;14.80;89.30
3071;DHT22;1546;47.208;9.038;2023-10-13T06:05:11;14.60;89.50
3071;DHT22;1546;47.208;9.038;2023-10-13T06:07:57;14.40;90.60
3071;DHT22;1546;47.208;9.038;2023-10-13T06:10:42;14.60;91.10
3071;DHT22;1546;47.208;9.038;2023-10-13T06:13:28;15.50;91.40
3071;DHT22;1546;47.208;9.038;2023-10-13T06:16:14;14.50;90.60
3071;DHT22;1546;47.208;9.038;2023-10-13T06:18:59;14.60;89.30
3071;DHT22;1546;47.208;9.038;2023-10-13T06:21:44;15.60;89.60
3071;DHT22;1546;47.208;9.038;2023-10-13T06:24:29;14.60;90.10
3071;DHT22;1546;47.208;9.038;2023-10-13T06:27:14;14.70;90.40
3071;DHT22;1546;47.208;9.038;2023-10-13T06:30:00;14.60;90.80
3071;DHT22;1546;47.208;9.038;2023-10-13T06:32:28;14.50;90.70
3071;DHT22;1546;47.208;9.038;2023-10-13T06:34:56;14.40;90.80
3071;DHT22;1546;47.208;9.038;2023-10-13T06:37:24;15.50;91.70
3071;DHT22;1546;47.208;9.038;2023-10-13T06:39:52;15.30;91.80
3071;DHT22;1546;47.208;9.038;2023-10-13T06:42:22;15.60;91.80
3071;DHT22;1546;47.208;9.038;2023-10-13T06:44:52;14.40;91.20
3071;DHT22;1546;47.208;9.038;2023-10-13T06:47:21;14.40;91.00
3071;DHT22;1546;47.208;9.038;2023-10-13T06:49:50;16.70;92.10
3071;DHT22;1546;47.208;9.038;2023-10-13T06:52:17;14.50;90.70
3071;DHT22;1546;47.208;9.038;2023-10-13T06:54:44;16.40;91.40
3071;DHT22;1546;47.208;9.038;2023-10-13T06:57:12;14.60;90.70
3071;DHT22;1546;47.208;9.038;2023-10-13T06:59:41;14.50;91.60
3071;DHT22;1546;47.208;9.038;2023-10-13T07:02:07;14.70;91.00
3071;DHT22;1546;47.208;9.038;2023-10-13T07:04:42;18.20;91.60
3071;DHT22;1546;47.208;9.038;2023-10-13T07:07:09;14.90;90.10
3071;DHT22;1546;47.208;9.038;2023-10-13T07:09:36;15.20;89.40
3071;DHT22;1546;47.208;9.038;2023-10-13T07:12:06;16.90;90.40
3071;DHT22;1546;47.208;9.038;2023-10-13T07:14:45;15.30;90.20
3071;DHT22;1546;47.208;9.038;2023-10-13T07:17:17;15.20;91.20
3071;DHT22;1546;47.208;9.038;2023-10-13T07:22:21;18.80;93.80
3071;DHT22;1546;47.208;9.038;2023-10-13T07:24:49;15.40;92.30
3071;DHT22;1546;47.208;9.038;2023-10-13T07:27:18;15.10;93.00
3071;DHT22;1546;47.208;9.038;2023-10-13T07:29:50;17.00;93.20
3071;DHT22;1546;47.208;9.038;2023-10-13T07:32:31;15.30;91.40
3071;DHT22;1546;47.208;9.038;2023-10-13T07:35:01;15.50;90.70
3071;DHT22;1546;47.208;9.038;2023-10-13T07:37:31;15.50;90.70
3071;DHT22;1546;47.208;9.038;2023-10-13T07:39:58;15.60;91.10
3071;DHT22;1546;47.208;9.038;2023-10-13T07:42:25;15.40;92.20
3071;DHT22;1546;47.208;9.038;2023-10-13T07:44:57;15.60;91.80
3071;DHT22;1546;47.208;9.038;2023-10-13T07:47:25;15.90;93.30
3071;DHT22;1546;47.208;9.038;2023-10-13T07:49:53;17.10;94.40
3071;DHT22;1546;47.208;9.038;2023-10-13T07:52:23;15.80;92.70
3071;DHT22;1546;47.208;9.038;2023-10-13T07:54:52;17.70;93.40
3071;DHT22;1546;47.208;9.038;2023-10-13T07:57:25;15.80;93.20
3071;DHT22;1546;47.208;9.038;2023-10-13T07:59:55;16.60;94.10
3071;DHT22;1546;47.208;9.038;2023-10-13T08:02:34;15.50;93.90
3071;DHT22;1546;47.208;9.038;2023-10-13T08:05:14;15.50;93.80
3071;DHT22;1546;47.208;9.038;2023-10-13T08:07:51;15.50;94.00
3071;DHT22;1546;47.208;9.038;2023-10-13T08:10:21;16.90;94.00
3071;DHT22;1546;47.208;9.038;2023-10-13T08:12:55;15.90;93.50
3071;DHT22;1546;47.208;9.038;2023-10-13T08:15:24;15.90;93.20
3071;DHT22;1546;47.208;9.038;2023-10-13T08:17:58;18.40;93.60
3071;DHT22;1546;47.208;9.038;2023-10-13T08:20:30;16.50;93.40
3071;DHT22;1546;47.208;9.038;2023-10-13T08:23:05;16.10;92.90
3071;DHT22;1546;47.208;9.038;2023-10-13T08:25:41;16.10;92.10
3071;DHT22;1546;47.208;9.038;2023-10-13T08:28:26;16.30;92.30
3071;DHT22;1546;47.208;9.038;2023-10-13T08:31:20;16.50;93.00
3071;DHT22;1546;47.208;9.038;2023-10-13T08:33:50;18.10;90.90
3071;DHT22;1546;47.208;9.038;2023-10-13T08:36:23;17.10;91.50
3071;DHT22;1546;47.208;9.038;2023-10-13T08:38:57;18.80;92.80
3071;DHT22;1546;47.208;9.038;2023-10-13T08:41:47;17.40;91.00
3071;DHT22;1546;47.208;9.038;2023-10-13T08:44:26;18.50;88.80
3071;DHT22;1546;47.208;9.038;2023-10-13T08:46:59;18.30;85.50
3071;DHT22;1546;47.208;9.038;2023-10-13T08:49:35;18.00;85.70
3071;DHT22;1546;47.208;9.038;2023-10-13T08:52:09;18.70;90.10
3071;DHT22;1546;47.208;9.038;2023-10-13T08:54:53;17.60;90.30
3071;DHT22;1546;47.208;9.038;2023-10-13T08:57:39;17.80;90.90
3071;DHT22;1546;47.208;9.038;2023-10-13T09:00:09;19.70;91.90
3071;DHT22;1546;47.208;9.038;2023-10-13T09:03:14;17.70;89.30
3071;DHT22;1546;47.208;9.038;2023-10-13T09:06:04;19.20;89.40
3071;DHT22;1546;47.208;9.038;2023-10-13T09:08:32;18.50;88.90
3071;DHT22;1546;47.208;9.038;2023-10-13T09:11:12;18.80;84.40
3071;DHT22;1546;47.208;9.038;2023-10-13T09:13:38;20.50;82.50
3071;DHT22;1546;47.208;9.038;2023-10-13T09:16:11;23.00;80.20
3071;DHT22;1546;47.208;9.038;2023-10-13T09:19:02;24.20;78.70
3071;DHT22;1546;47.208;9.038;2023-10-13T09:21:37;24.80;74.00
3071;DHT22;1546;47.208;9.038;2023-10-13T09:24:13;27.40;71.60
3071;DHT22;1546;47.208;9.038;2023-10-13T09:26:49;28.80;65.40
3071;DHT22;1546;47.208;9.038;2023-10-13T09:29:19;28.10;63.80
3071;DHT22;1546;47.208;9.038;2023-10-13T09:31:46;28.50;62.70
3071;DHT22;1546;47.208;9.038;2023-10-13T09:34:20;27.80;63.00
3071;DHT22;1546;47.208;9.038;2023-10-13T09:36:47;29.10;64.00
3071;DHT22;1546;47.208;9.038;2023-10-13T09:39:25;29.10;63.30
3071;DHT22;1546;47.208;9.038;2023-10-13T09:42:02;28.20;62.90
3071;DHT22;1546;47.208;9.038;2023-10-13T09:44:29;28.60;62.90
3071;DHT22;1546;47.208;9.038;2023-10-13T09:47:01;27.70;63.30
3071;DHT22;1546;47.208;9.038;2023-10-13T09:49:39;26.90;64.60
3071;DHT22;1546;47.208;9.038;2023-10-13T09:52:16;27.10;66.80
3071;DHT22;1546;47.208;9.038;2023-10-13T09:55:00;27.20;66.10
3071;DHT22;1546;47.208;9.038;2023-10-13T09:57:38;27.40;67.80
3071;DHT22;1546;47.208;9.038;2023-10-13T10:00:12;27.60;65.80
3071;DHT22;1546;47.208;9.038;2023-10-13T10:02:58;27.10;64.50
3071;DHT22;1546;47.208;9.038;2023-10-13T10:05:40;27.10;65.90
3071;DHT22;1546;47.208;9.038;2023-10-13T10:08:06;27.90;66.20
3071;DHT22;1546;47.208;9.038;2023-10-13T10:10:47;27.70;64.80
3071;DHT22;1546;47.208;9.038;2023-10-13T10:13:21;27.80;64.30
3071;DHT22;1546;47.208;9.038;2023-10-13T10:15:59;28.20;65.30
3071;DHT22;1546;47.208;9.038;2023-10-13T10:18:28;28.30;64.30
3071;DHT22;1546;47.208;9.038;2023-10-13T10:21:03;27.90;64.50
3071;DHT22;1546;47.208;9.038;2023-10-13T10:23:33;27.80;64.00
3071;DHT22;1546;47.208;9.038;2023-10-13T10:26:11;27.60;64.60
3071;DHT22;1546;47.208;9.038;2023-10-13T10:28:42;28.00;65.00
3071;DHT22;1546;47.208;9.038;2023-10-13T10:31:10;27.40;63.20
3071;DHT22;1546;47.208;9.038;2023-10-13T10:33:40;27.60;63.10
3071;DHT22;1546;47.208;9.038;2023-10-13T10:36:07;27.90;63.70
3071;DHT22;1546;47.208;9.038;2023-10-13T10:38:51;28.40;62.10
3071;DHT22;1546;47.208;9.038;2023-10-13T10:41:25;29.60;62.60
3071;DHT22;1546;47.208;9.038;2023-10-13T10:43:56;29.60;61.10
3071;DHT22;1546;47.208;9.038;2023-10-13T10:46:29;29.20;61.90
3071;DHT22;1546;47.208;9.038;2023-10-13T10:49:04;29.00;59.80
3071;DHT22;1546;47.208;9.038;2023-10-13T10:51:36;29.50;59.70
3071;DHT22;1546;47.208;9.038;2023-10-13T10:54:18;28.80;60.20
3071;DHT22;1546;47.208;9.038;2023-10-13T10:56:46;28.80;61.30
3071;DHT22;1546;47.208;9.038;2023-10-13T10:59:20;29.10;61.30
3071;DHT22;1546;47.208;9.038;2023-10-13T11:01:50;29.10;63.70
3071;DHT22;1546;47.208;9.038;2023-10-13T11:04:18;28.60;63.60
3071;DHT22;1546;47.208;9.038;2023-10-13T11:06:59;27.50;63.80
3071;DHT22;1546;47.208;9.038;2023-10-13T11:09:27;26.70;66.00
3071;DHT22;1546;47.208;9.038;2023-10-13T11:12:12;26.50;67.60
3071;DHT22;1546;47.208;9.038;2023-10-13T11:14:44;26.50;65.80
3071;DHT22;1546;47.208;9.038;2023-10-13T11:17:19;27.10;68.50
3071;DHT22;1546;47.208;9.038;2023-10-13T11:19:51;26.40;67.50
3071;DHT22;1546;47.208;9.038;2023-10-13T11:22:20;25.20;69.70
3071;DHT22;1546;47.208;9.038;2023-10-13T11:25:03;25.50;71.90
3071;DHT22;1546;47.208;9.038;2023-10-13T11:27:36;26.00;70.90
3071;DHT22;1546;47.208;9.038;2023-10-13T11:30:22;26.60;69.90
3071;DHT22;1546;47.208;9.038;2023-10-13T11:33:02;26.00;68.70
3071;DHT22;1546;47.208;9.038;2023-10-13T11:35:31;26.20;69.60
3071;DHT22;1546;47.208;9.038;2023-10-13T11:38:12;26.50;70.10
3071;DHT22;1546;47.208;9.038;2023-10-13T11:40:40;26.70;67.00
3071;DHT22;1546;47.208;9.038;2023-10-13T11:43:09;26.70;68.50
3071;DHT22;1546;47.208;9.038;2023-10-13T11:45:41;25.80;69.70
3071;DHT22;1546;47.208;9.038;2023-10-13T11:48:21;25.60;69.50
3071;DHT22;1546;47.208;9.038;2023-10-13T11:51:00;26.00;68.90
3071;DHT22;1546;47.208;9.038;2023-10-13T11:53:27;26.70;70.40
3071;DHT22;1546;47.208;9.038;2023-10-13T11:55:55;26.60;69.80
3071;DHT22;1546;47.208;9.038;2023-10-13T11:58:22;27.00;67.20
3071;DHT22;1546;47.208;9.038;2023-10-13T12:00:50;26.70;68.90
3071;DHT22;1546;47.208;9.038;2023-10-13T12:03:19;26.50;69.70
3071;DHT22;1546;47.208;9.038;2023-10-13T12:06:04;26.70;66.90
3071;DHT22;1546;47.208;9.038;2023-10-13T12:08:48;26.50;67.30
3071;DHT22;1546;47.208;9.038;2023-10-13T12:11:18;26.70;68.70
3071;DHT22;1546;47.208;9.038;2023-10-13T12:13:57;26.90;67.50
3071;DHT22;1546;47.208;9.038;2023-10-13T12:16:38;26.90;67.60
3071;DHT22;1546;47.208;9.038;2023-10-13T12:19:08;27.50;70.80
3071;DHT22;1546;47.208;9.038;2023-10-13T12:21:37;27.50;67.90
3071;DHT22;1546;47.208;9.038;2023-10-13T12:24:04;27.50;66.10
3071;DHT22;1546;47.208;9.038;2023-10-13T12:26:37;27.30;67.60
3071;DHT22;1546;47.208;9.038;2023-10-13T12:29:07;27.40;68.70
3071;DHT22;1546;47.208;9.038;2023-10-13T12:31:45;27.70;70.70
3071;DHT22;1546;47.208;9.038;2023-10-13T12:34:17;27.10;69.70
3071;DHT22;1546;47.208;9.038;2023-10-13T12:37:04;27.00;69.10
3071;DHT22;1546;47.208;9.038;2023-10-13T12:39:50;27.20;68.10
3071;DHT22;1546;47.208;9.038;2023-10-13T12:42:35;27.20;67.90
3071;DHT22;1546;47.208;9.038;2023-10-13T12:45:19;26.70;68.80
3071;DHT22;1546;47.208;9.038;2023-10-13T12:48:06;26.60;70.50
3071;DHT22;1546;47.208;9.038;2023-10-13T12:50:49;26.30;72.00
3071;DHT22;1546;47.208;9.038;2023-10-13T12:53:33;26.60;71.90
3071;DHT22;1546;47.208;9.038;2023-10-13T12:56:05;26.60;72.70
3071;DHT22;1546;47.208;9.038;2023-10-13T12:58:31;26.90;72.60
3071;DHT22;1546;47.208;9.038;2023-10-13T13:00:59;26.60;71.50
3071;DHT22;1546;47.208;9.038;2023-10-13T13:03:33;26.00;71.40
3071;DHT22;1546;47.208;9.038;2023-10-13T13:06:00;26.40;73.40
3071;DHT22;1546;47.208;9.038;2023-10-13T13:08:32;26.90;72.50
3071;DHT22;1546;47.208;9.038;2023-10-13T13:11:01;26.80;73.10
3071;DHT22;1546;47.208;9.038;2023-10-13T13:13:28;27.00;72.30
3071;DHT22;1546;47.208;9.038;2023-10-13T13:15:55;27.40;70.60
3071;DHT22;1546;47.208;9.038;2023-10-13T13:18:22;27.60;71.00
3071;DHT22;1546;47.208;9.038;2023-10-13T13:20:50;27.80;69.50
3071;DHT22;1546;47.208;9.038;2023-10-13T13:23:21;27.90;69.00
3071;DHT22;1546;47.208;9.038;2023-10-13T13:25:51;28.10;69.20
3071;DHT22;1546;47.208;9.038;2023-10-13T13:28:18;27.90;68.60
3071;DHT22;1546;47.208;9.038;2023-10-13T13:30:45;27.70;68.60
3071;DHT22;1546;47.208;9.038;2023-10-13T13:33:16;27.90;70.50
3071;DHT22;1546;47.208;9.038;2023-10-13T13:35:53;27.70;70.90
3071;DHT22;1546;47.208;9.038;2023-10-13T13:38:20;27.20;72.00
3071;DHT22;1546;47.208;9.038;2023-10-13T13:40:53;27.10;71.90
3071;DHT22;1546;47.208;9.038;2023-10-13T13:43:20;26.80;72.50
3071;DHT22;1546;47.208;9.038;2023-10-13T13:46:04;26.90;73.90
3071;DHT22;1546;47.208;9.038;2023-10-13T13:48:35;27.10;74.90
3071;DHT22;1546;47.208;9.038;2023-10-13T13:51:04;27.10;73.50
3071;DHT22;1546;47.208;9.038;2023-10-13T13:53:37;27.00;74.70
3071;DHT22;1546;47.208;9.038;2023-10-13T13:56:08;27.20;75.10
3071;DHT22;1546;47.208;9.038;2023-10-13T13:58:35;26.60;59.50
3071;DHT22;1546;47.208;9.038;2023-10-13T14:01:03;26.70;66.50
3071;DHT22;1546;47.208;9.038;2023-10-13T14:03:39;26.90;71.50
3071;DHT22;1546;47.208;9.038;2023-10-13T14:06:12;26.80;67.60
3071;DHT22;1546;47.208;9.038;2023-10-13T14:08:44;26.90;60.60
3071;DHT22;1546;47.208;9.038;2023-10-13T14:11:15;27.10;60.00
3071;DHT22;1546;47.208;9.038;2023-10-13T14:14:11;27.80;53.90
3071;DHT22;1546;47.208;9.038;2023-10-13T14:16:54;28.40;54.90
3071;DHT22;1546;47.208;9.038;2023-10-13T14:19:29;29.20;54.60
3071;DHT22;1546;47.208;9.038;2023-10-13T14:21:58;29.20;55.90
3071;DHT22;1546;47.208;9.038;2023-10-13T14:24:25;29.40;53.40
3071;DHT22;1546;47.208;9.038;2023-10-13T14:26:53;29.80;53.60
3071;DHT22;1546;47.208;9.038;2023-10-13T14:29:20;30.40;52.20
3071;DHT22;1546;47.208;9.038;2023-10-13T14:31:52;30.10;55.00
3071;DHT22;1546;47.208;9.038;2023-10-13T14:34:19;30.60;50.80
3071;DHT22;1546;47.208;9.038;2023-10-13T14:36:47;31.00;50.10
3071;DHT22;1546;47.208;9.038;2023-10-13T14:39:16;30.90;55.10
3071;DHT22;1546;47.208;9.038;2023-10-13T14:41:46;30.90;49.80
3071;DHT22;1546;47.208;9.038;2023-10-13T14:44:13;30.60;52.70
3071;DHT22;1546;47.208;9.038;2023-10-13T14:46:40;30.30;55.60
3071;DHT22;1546;47.208;9.038;2023-10-13T14:49:08;29.70;59.40
3071;DHT22;1546;47.208;9.038;2023-10-13T14:51:35;29.10;59.40
3071;DHT22;1546;47.208;9.038;2023-10-13T14:54:05;28.90;61.10
3071;DHT22;1546;47.208;9.038;2023-10-13T14:56:33;28.30;63.80
3071;DHT22;1546;47.208;9.038;2023-10-13T14:59:00;27.70;66.60
3071;DHT22;1546;47.208;9.038;2023-10-13T15:01:30;27.20;68.10
3071;DHT22;1546;47.208;9.038;2023-10-13T15:03:57;26.50;68.10
3071;DHT22;1546;47.208;9.038;2023-10-13T15:06:25;26.10;71.20
3071;DHT22;1546;47.208;9.038;2023-10-13T15:08:55;25.70;71.80
3071;DHT22;1546;47.208;9.038;2023-10-13T15:11:24;25.20;73.70
3071;DHT22;1546;47.208;9.038;2023-10-13T15:13:54;25.20;74.50
3071;DHT22;1546;47.208;9.038;2023-10-13T15:16:22;25.90;73.30
3071;DHT22;1546;47.208;9.038;2023-10-13T15:18:51;24.60;72.00
3071;DHT22;1546;47.208;9.038;2023-10-13T15:21:21;24.60;72.20
3071;DHT22;1546;47.208;9.038;2023-10-13T15:23:48;24.40;72.70
3071;DHT22;1546;47.208;9.038;2023-10-13T15:26:17;24.60;73.20
3071;DHT22;1546;47.208;9.038;2023-10-13T15:28:46;24.40;71.70
3071;DHT22;1546;47.208;9.038;2023-10-13T15:31:16;24.70;71.00
3071;DHT22;1546;47.208;9.038;2023-10-13T15:33:52;26.10;70.30
3071;DHT22;1546;47.208;9.038;2023-10-13T15:36:20;24.20;68.40
3071;DHT22;1546;47.208;9.038;2023-10-13T15:38:49;24.60;70.00
3071;DHT22;1546;47.208;9.038;2023-10-13T15:41:27;25.10;70.20
3071;DHT22;1546;47.208;9.038;2023-10-13T15:43:54;24.00;69.80
3071;DHT22;1546;47.208;9.038;2023-10-13T15:46:23;23.60;70.00
3071;DHT22;1546;47.208;9.038;2023-10-13T15:48:50;24.10;71.90
3071;DHT22;1546;47.208;9.038;2023-10-13T15:51:17;24.20;72.10
3071;DHT22;1546;47.208;9.038;2023-10-13T15:53:45;25.40;74.50
3071;DHT22;1546;47.208;9.038;2023-10-13T15:56:13;24.80;73.20
3071;DHT22;1546;47.208;9.038;2023-10-13T15:58:40;22.50;72.70
3071;DHT22;1546;47.208;9.038;2023-10-13T16:01:09;24.30;72.40
3071;DHT22;1546;47.208;9.038;2023-10-13T16:03:39;22.70;72.40
3071;DHT22;1546;47.208;9.038;2023-10-13T16:06:09;26.10;76.60
3071;DHT22;1546;47.208;9.038;2023-10-13T16:08:37;23.90;74.80
3071;DHT22;1546;47.208;9.038;2023-10-13T16:11:04;22.10;73.20
3071;DHT22;1546;47.208;9.038;2023-10-13T16:13:34;21.80;73.50
3071;DHT22;1546;47.208;9.038;2023-10-13T16:16:02;21.70;73.30
3071;DHT22;1546;47.208;9.038;2023-10-13T16:18:29;21.70;73.30
3071;DHT22;1546;47.208;9.038;2023-10-13T16:20:59;21.60;73.80
3071;DHT22;1546;47.208;9.038;2023-10-13T16:23:29;24.00;76.30
3071;DHT22;1546;47.208;9.038;2023-10-13T16:25:56;21.50;75.50
3071;DHT22;1546;47.208;9.038;2023-10-13T16:28:27;21.30;74.70
3071;DHT22;1546;47.208;9.038;2023-10-13T16:30:53;21.40;75.10
3071;DHT22;1546;47.208;9.038;2023-10-13T16:33:21;21.00;75.10
3071;DHT22;1546;47.208;9.038;2023-10-13T16:35:48;21.00;75.30
3071;DHT22;1546;47.208;9.038;2023-10-13T16:38:18;22.10;78.10
3071;DHT22;1546;47.208;9.038;2023-10-13T16:40:45;22.40;77.80
3071;DHT22;1546;47.208;9.038;2023-10-13T16:43:12;23.80;79.20
3071;DHT22;1546;47.208;9.038;2023-10-13T16:45:39;20.70;76.00
3071;DHT22;1546;47.208;9.038;2023-10-13T16:48:10;20.60;76.50
3071;DHT22;1546;47.208;9.038;2023-10-13T16:50:39;20.60;76.90